sensor_id;sensor_type;location;lat;lon;timestamp;temperature;humidity
15765;DHT22;7983;50.744;7.086;2023-03-23T00:01:12;15.60;99.90
15765;DHT22;7983;50.744;7.086;2023-03-23T00:03:41;15.60;99.90
15765;DHT22;7983;50.744;7.086;2023-03-23T00:06:10;15.60;99.90
15765;DHT22;7983;50.744;7.086;2023-03-23T00:08:46;15.60;99.90
15765;DHT22;7983;50.744;7.086;2023-03-23T00:11:18;15.60;99.90
15765;DHT22;7983;50.744;7.086;2023-03-23T00:13:45;15.60;99.90
15765;DHT22;7983;50.744;7.086;2023-03-23T00:16:12;15.60;99.90
15765;DHT22;7983;50.744;7.086;2023-03-23T00:18:51;15.60;99.90
15765;DHT22;7983;50.744;7.086;2023-03-23T00:21:31;15.60;99.90
15765;DHT22;7983;50.744;7.086;2023-03-23T00:26:38;15.60;99.90
15765;DHT22;7983;50.744;7.086;2023-03-23T00:29:08;15.60;99.90
15765;DHT22;7983;50.744;7.086;2023-03-23T00:31:36;15.60;99.90
15765;DHT22;7983;50.744;7.086;2023-03-23T00:34:04;15.60;99.90
15765;DHT22;7983;50.744;7.086;2023-03-23T00:36:32;15.60;99.90
15765;DHT22;7983;50.744;7.086;2023-03-23T00:39:03;15.50;99.90
15765;DHT22;7983;50.744;7.086;2023-03-23T00:41:32;15.60;99.90
15765;DHT22;7983;50.744;7.086;2023-03-23T00:43:58;15.50;99.90
15765;DHT22;7983;50.744;7.086;2023-03-23T00:46:28;15.50;99.90
15765;DHT22;7983;50.744;7.086;2023-03-23T00:48:55;15.50;99.90
15765;DHT22;7983;50.744;7.086;2023-03-23T00:51:24;15.50;99.90
15765;DHT22;7983;50.744;7.086;2023-03-23T00:53:50;15.50;99.90
15765;DHT22;7983;50.744;7.086;2023-03-23T00:56:16;15.50;99.90
15765;DHT22;7983;50.744;7.086;2023-03-23T00:58:42;15.50;99.90
15765;DHT22;7983;50.744;7.086;2023-03-23T01:01:08;15.50;99.90
15765;DHT22;7983;50.744;7.086;2023-03-23T01:03:34;15.50;99.90
15765;DHT22;7983;50.744;7.086;2023-03-23T01:06:06;15.50;99.90
15765;DHT22;7983;50.744;7.086;2023-03-23T01:08:35;15.50;99.90
15765;DHT22;7983;50.744;7.086;2023-03-23T01:11:06;15.50;99.90
15765;DHT22;7983;50.744;7.086;2023-03-23T01:13:32;15.40;99.90
15765;DHT22;7983;50.744;7.086;2023-03-23T01:15:57;15.50;99.90
15765;DHT22;7983;50.744;7.086;2023-03-23T01:18:23;15.50;99.90
15765;DHT22;7983;50.744;7.086;2023-03-23T01:20:51;15.40;99.90
15765;DHT22;7983;50.744;7.086;2023-03-23T01:23:17;15.40;99.90
15765;DHT22;7983;50.744;7.086;2023-03-23T01:25:42;15.40;99.90
15765;DHT22;7983;50.744;7.086;2023-03-23T01:28:08;15.40;99.90
15765;DHT22;7983;50.744;7.086;2023-03-23T01:30:39;15.40;99.90
15765;DHT22;7983;50.744;7.086;2023-03-23T01:33:07;15.40;99.90
15765;DHT22;7983;50.744;7.086;2023-03-23T01:35:32;15.40;99.90
15765;DHT22;7983;50.744;7.086;2023-03-23T01:37:58;15.40;99.90
15765;DHT22;7983;50.744;7.086;2023-03-23T01:40:26;15.40;99.90
15765;DHT22;7983;50.744;7.086;2023-03-23T01:42:53;15.40;99.90
15765;DHT22;7983;50.744;7.086;2023-03-23T01:47:57;15.40;99.90
15765;DHT22;7983;50.744;7.086;2023-03-23T01:50:25;15.40;99.90
15765;DHT22;7983;50.744;7.086;2023-03-23T01:52:55;15.40;99.90
15765;DHT22;7983;50.744;7.086;2023-03-23T01:55:27;15.30;99.90
15765;DHT22;7983;50.744;7.086;2023-03-23T01:57:55;15.30;99.90
15765;DHT22;7983;50.744;7.086;2023-03-23T02:00:21;15.30;99.90
15765;DHT22;7983;50.744;7.086;2023-03-23T02:02:50;15.30;99.90
15765;DHT22;7983;50.744;7.086;2023-03-23T02:05:27;15.30;99.90
15765;DHT22;7983;50.744;7.086;2023-03-23T02:07:54;15.30;99.90
15765;DHT22;7983;50.744;7.086;2023-03-23T02:10:29;15.20;99.90
15765;DHT22;7983;50.744;7.086;2023-03-23T02:13:00;15.20;99.90
15765;DHT22;7983;50.744;7.086;2023-03-23T02:15:45;15.20;99.90
15765;DHT22;7983;50.744;7.086;2023-03-23T02:18:35;15.10;99.90
15765;DHT22;7983;50.744;7.086;2023-03-23T02:26:37;15.00;99.90
15765;DHT22;7983;50.744;7.086;2023-03-23T02:40:06;14.90;99.90
15765;DHT22;7983;50.744;7.086;2023-03-23T02:42:48;14.90;99.90
15765;DHT22;7983;50.744;7.086;2023-03-23T02:45:16;14.90;99.90
15765;DHT22;7983;50.744;7.086;2023-03-23T02:47:43;14.80;99.90
15765;DHT22;7983;50.744;7.086;2023-03-23T02:50:12;14.80;99.90
15765;DHT22;7983;50.744;7.086;2023-03-23T02:52:40;14.80;99.90
15765;DHT22;7983;50.744;7.086;2023-03-23T02:55:07;14.70;99.90
15765;DHT22;7983;50.744;7.086;2023-03-23T02:57:37;14.70;99.90
15765;DHT22;7983;50.744;7.086;2023-03-23T03:00:06;14.60;99.90
15765;DHT22;7983;50.744;7.086;2023-03-23T03:02:39;14.60;99.90
15765;DHT22;7983;50.744;7.086;2023-03-23T03:15:37;14.30;99.90
15765;DHT22;7983;50.744;7.086;2023-03-23T03:20:40;14.30;99.90
15765;DHT22;7983;50.744;7.086;2023-03-23T03:23:10;14.20;99.90
15765;DHT22;7983;50.744;7.086;2023-03-23T03:25:42;14.20;99.90
15765;DHT22;7983;50.744;7.086;2023-03-23T03:28:17;14.20;99.90
15765;DHT22;7983;50.744;7.086;2023-03-23T03:30:48;14.20;99.90
15765;DHT22;7983;50.744;7.086;2023-03-23T03:33:19;14.20;99.90
15765;DHT22;7983;50.744;7.086;2023-03-23T03:35:46;14.20;99.90
15765;DHT22;7983;50.744;7.086;2023-03-23T03:38:13;14.10;99.90
15765;DHT22;7983;50.744;7.086;2023-03-23T03:40:41;14.10;99.90
15765;DHT22;7983;50.744;7.086;2023-03-23T03:43:09;14.20;99.90
15765;DHT22;7983;50.744;7.086;2023-03-23T03:45:34;14.10;99.90
15765;DHT22;7983;50.744;7.086;2023-03-23T03:48:04;14.10;99.90
15765;DHT22;7983;50.744;7.086;2023-03-23T03:50:35;14.10;99.90
15765;DHT22;7983;50.744;7.086;2023-03-23T03:53:01;14.10;99.90
15765;DHT22;7983;50.744;7.086;2023-03-23T03:55:29;14.10;99.90
15765;DHT22;7983;50.744;7.086;2023-03-23T03:58:03;14.10;99.90
15765;DHT22;7983;50.744;7.086;2023-03-23T04:00:32;14.10;99.90
15765;DHT22;7983;50.744;7.086;2023-03-23T04:02:57;14.10;99.90
15765;DHT22;7983;50.744;7.086;2023-03-23T04:05:25;14.10;99.90
15765;DHT22;7983;50.744;7.086;2023-03-23T04:07:54;14.10;99.90
15765;DHT22;7983;50.744;7.086;2023-03-23T04:10:27;14.20;99.90
15765;DHT22;7983;50.744;7.086;2023-03-23T04:12:55;14.20;99.90
15765;DHT22;7983;50.744;7.086;2023-03-23T04:15:23;14.20;99.90
15765;DHT22;7983;50.744;7.086;2023-03-23T04:17:51;14.20;99.90
15765;DHT22;7983;50.744;7.086;2023-03-23T04:20:19;14.20;99.90
15765;DHT22;7983;50.744;7.086;2023-03-23T04:22:46;14.20;99.90
15765;DHT22;7983;50.744;7.086;2023-03-23T04:25:18;14.20;99.90
15765;DHT22;7983;50.744;7.086;2023-03-23T04:27:49;14.20;99.90
15765;DHT22;7983;50.744;7.086;2023-03-23T04:30:19;14.20;99.90
15765;DHT22;7983;50.744;7.086;2023-03-23T04:32:45;14.20;99.90
15765;DHT22;7983;50.744;7.086;2023-03-23T04:35:13;14.20;99.90
15765;DHT22;7983;50.744;7.086;2023-03-23T04:37:44;14.20;99.90
15765;DHT22;7983;50.744;7.086;2023-03-23T04:40:15;14.20;99.90
15765;DHT22;7983;50.744;7.086;2023-03-23T04:42:43;14.10;99.90
15765;DHT22;7983;50.744;7.086;2023-03-23T04:45:14;14.10;99.90
15765;DHT22;7983;50.744;7.086;2023-03-23T04:47:41;14.10;99.90
15765;DHT22;7983;50.744;7.086;2023-03-23T04:50:12;14.10;99.90
15765;DHT22;7983;50.744;7.086;2023-03-23T04:52:39;14.10;99.90
15765;DHT22;7983;50.744;7.086;2023-03-23T04:55:11;14.10;99.90
15765;DHT22;7983;50.744;7.086;2023-03-23T04:57:36;14.00;99.90
15765;DHT22;7983;50.744;7.086;2023-03-23T05:00:03;14.00;99.90
15765;DHT22;7983;50.744;7.086;2023-03-23T05:02:35;14.00;99.90
15765;DHT22;7983;50.744;7.086;2023-03-23T05:05:01;14.00;99.90
15765;DHT22;7983;50.744;7.086;2023-03-23T05:07:27;14.00;99.90
15765;DHT22;7983;50.744;7.086;2023-03-23T05:09:52;14.00;99.90
15765;DHT22;7983;50.744;7.086;2023-03-23T05:12:20;14.00;99.90
15765;DHT22;7983;50.744;7.086;2023-03-23T05:14:48;14.00;99.90
15765;DHT22;7983;50.744;7.086;2023-03-23T05:17:14;14.00;99.90
15765;DHT22;7983;50.744;7.086;2023-03-23T05:19:43;14.00;99.90
15765;DHT22;7983;50.744;7.086;2023-03-23T05:22:10;14.00;99.90
15765;DHT22;7983;50.744;7.086;2023-03-23T05:24:40;14.00;99.90
15765;DHT22;7983;50.744;7.086;2023-03-23T05:27:10;14.00;99.90
15765;DHT22;7983;50.744;7.086;2023-03-23T05:29:36;14.00;99.90
15765;DHT22;7983;50.744;7.086;2023-03-23T05:32:07;13.90;99.90
15765;DHT22;7983;50.744;7.086;2023-03-23T05:34:34;14.00;99.90
15765;DHT22;7983;50.744;7.086;2023-03-23T05:37:03;13.90;99.90
15765;DHT22;7983;50.744;7.086;2023-03-23T05:39:30;14.00;99.90
15765;DHT22;7983;50.744;7.086;2023-03-23T05:41:56;13.90;99.90
15765;DHT22;7983;50.744;7.086;2023-03-23T05:44:22;14.00;99.90
15765;DHT22;7983;50.744;7.086;2023-03-23T05:46:51;14.00;99.90
15765;DHT22;7983;50.744;7.086;2023-03-23T05:49:20;14.00;99.90
15765;DHT22;7983;50.744;7.086;2023-03-23T05:51:50;14.00;99.90
15765;DHT22;7983;50.744;7.086;2023-03-23T05:54:16;14.00;99.90
15765;DHT22;7983;50.744;7.086;2023-03-23T05:56:44;14.00;99.90
15765;DHT22;7983;50.744;7.086;2023-03-23T05:59:09;14.00;99.90
15765;DHT22;7983;50.744;7.086;2023-03-23T06:01:38;14.10;99.90
15765;DHT22;7983;50.744;7.086;2023-03-23T06:04:04;14.10;99.90
15765;DHT22;7983;50.744;7.086;2023-03-23T06:06:30;14.00;99.90
15765;DHT22;7983;50.744;7.086;2023-03-23T06:08:58;14.10;99.90
15765;DHT22;7983;50.744;7.086;2023-03-23T06:11:24;14.10;99.90
15765;DHT22;7983;50.744;7.086;2023-03-23T06:13:52;14.10;99.90
15765;DHT22;7983;50.744;7.086;2023-03-23T06:16:18;14.20;99.90
15765;DHT22;7983;50.744;7.086;2023-03-23T06:18:44;14.20;99.90
15765;DHT22;7983;50.744;7.086;2023-03-23T06:21:11;14.30;99.90
15765;DHT22;7983;50.744;7.086;2023-03-23T06:23:39;14.30;99.90
15765;DHT22;7983;50.744;7.086;2023-03-23T06:26:08;14.30;99.90
15765;DHT22;7983;50.744;7.086;2023-03-23T06:28:35;14.40;99.90
15765;DHT22;7983;50.744;7.086;2023-03-23T06:31:05;14.40;99.90
15765;DHT22;7983;50.744;7.086;2023-03-23T06:33:36;14.50;99.90
15765;DHT22;7983;50.744;7.086;2023-03-23T06:36:07;14.50;99.90
15765;DHT22;7983;50.744;7.086;2023-03-23T06:38:33;14.50;99.90
15765;DHT22;7983;50.744;7.086;2023-03-23T06:41:00;14.60;99.90
15765;DHT22;7983;50.744;7.086;2023-03-23T06:43:27;14.70;99.90
15765;DHT22;7983;50.744;7.086;2023-03-23T06:45:58;14.70;99.90
15765;DHT22;7983;50.744;7.086;2023-03-23T06:48:27;14.80;99.90
15765;DHT22;7983;50.744;7.086;2023-03-23T06:50:52;14.70;99.90
15765;DHT22;7983;50.744;7.086;2023-03-23T06:53:18;14.80;99.90
15765;DHT22;7983;50.744;7.086;2023-03-23T06:55:45;14.80;99.90
15765;DHT22;7983;50.744;7.086;2023-03-23T06:58:12;14.80;99.90
15765;DHT22;7983;50.744;7.086;2023-03-23T07:00:38;14.80;99.90
15765;DHT22;7983;50.744;7.086;2023-03-23T07:03:04;14.80;99.90
15765;DHT22;7983;50.744;7.086;2023-03-23T07:05:34;14.80;99.90
15765;DHT22;7983;50.744;7.086;2023-03-23T07:08:01;14.90;99.90
15765;DHT22;7983;50.744;7.086;2023-03-23T07:10:26;14.90;99.90
15765;DHT22;7983;50.744;7.086;2023-03-23T07:12:55;14.90;99.90
15765;DHT22;7983;50.744;7.086;2023-03-23T07:15:22;14.90;99.90
15765;DHT22;7983;50.744;7.086;2023-03-23T07:17:52;14.90;99.90
15765;DHT22;7983;50.744;7.086;2023-03-23T07:20:19;14.90;99.90
15765;DHT22;7983;50.744;7.086;2023-03-23T07:22:45;15.00;99.90
15765;DHT22;7983;50.744;7.086;2023-03-23T07:25:11;15.00;99.90
15765;DHT22;7983;50.744;7.086;2023-03-23T07:27:36;15.00;99.90
15765;DHT22;7983;50.744;7.086;2023-03-23T07:30:05;15.00;99.90
15765;DHT22;7983;50.744;7.086;2023-03-23T07:32:31;15.10;99.90
15765;DHT22;7983;50.744;7.086;2023-03-23T07:34:58;15.10;99.90
15765;DHT22;7983;50.744;7.086;2023-03-23T07:37:26;15.20;99.90
15765;DHT22;7983;50.744;7.086;2023-03-23T07:39:53;15.20;99.90
15765;DHT22;7983;50.744;7.086;2023-03-23T07:42:21;15.20;99.90
15765;DHT22;7983;50.744;7.086;2023-03-23T07:44:49;15.30;99.90
15765;DHT22;7983;50.744;7.086;2023-03-23T07:47:17;15.30;99.90
15765;DHT22;7983;50.744;7.086;2023-03-23T07:49:43;15.30;99.90
15765;DHT22;7983;50.744;7.086;2023-03-23T07:52:09;15.40;99.90
15765;DHT22;7983;50.744;7.086;2023-03-23T07:54:36;15.50;99.90
15765;DHT22;7983;50.744;7.086;2023-03-23T07:57:02;15.50;99.90
15765;DHT22;7983;50.744;7.086;2023-03-23T07:59:27;15.40;99.90
15765;DHT22;7983;50.744;7.086;2023-03-23T08:01:53;15.50;99.90
15765;DHT22;7983;50.744;7.086;2023-03-23T08:04:19;15.50;99.90
15765;DHT22;7983;50.744;7.086;2023-03-23T08:06:46;15.60;99.90
15765;DHT22;7983;50.744;7.086;2023-03-23T08:09:12;15.60;99.90
15765;DHT22;7983;50.744;7.086;2023-03-23T08:11:40;15.60;99.90
15765;DHT22;7983;50.744;7.086;2023-03-23T08:14:06;15.70;99.90
15765;DHT22;7983;50.744;7.086;2023-03-23T08:16:32;15.70;99.90
15765;DHT22;7983;50.744;7.086;2023-03-23T08:18:58;15.70;99.90
15765;DHT22;7983;50.744;7.086;2023-03-23T08:21:24;15.70;99.90
15765;DHT22;7983;50.744;7.086;2023-03-23T08:23:51;15.70;99.90
15765;DHT22;7983;50.744;7.086;2023-03-23T08:26:22;15.80;99.90
15765;DHT22;7983;50.744;7.086;2023-03-23T08:28:48;15.80;99.90
15765;DHT22;7983;50.744;7.086;2023-03-23T08:31:14;15.80;99.90
15765;DHT22;7983;50.744;7.086;2023-03-23T08:33:40;15.80;99.90
15765;DHT22;7983;50.744;7.086;2023-03-23T08:36:10;15.80;99.90
15765;DHT22;7983;50.744;7.086;2023-03-23T08:38:38;15.90;99.90
15765;DHT22;7983;50.744;7.086;2023-03-23T08:41:08;15.90;99.90
15765;DHT22;7983;50.744;7.086;2023-03-23T08:43:35;15.90;99.90
15765;DHT22;7983;50.744;7.086;2023-03-23T08:46:01;15.90;99.90
15765;DHT22;7983;50.744;7.086;2023-03-23T08:48:32;15.90;99.90
15765;DHT22;7983;50.744;7.086;2023-03-23T08:50:59;15.90;99.90
15765;DHT22;7983;50.744;7.086;2023-03-23T08:53:27;15.90;99.90
15765;DHT22;7983;50.744;7.086;2023-03-23T08:55:55;16.00;99.90
15765;DHT22;7983;50.744;7.086;2023-03-23T08:58:24;16.10;99.90
15765;DHT22;7983;50.744;7.086;2023-03-23T09:00:51;16.10;99.90
15765;DHT22;7983;50.744;7.086;2023-03-23T09:03:20;16.10;99.90
15765;DHT22;7983;50.744;7.086;2023-03-23T09:05:45;16.10;99.90
15765;DHT22;7983;50.744;7.086;2023-03-23T09:08:14;16.20;99.90
15765;DHT22;7983;50.744;7.086;2023-03-23T09:10:39;16.20;99.90
15765;DHT22;7983;50.744;7.086;2023-03-23T09:13:05;16.20;99.90
15765;DHT22;7983;50.744;7.086;2023-03-23T09:15:32;16.20;99.90
15765;DHT22;7983;50.744;7.086;2023-03-23T09:17:58;16.20;99.90
15765;DHT22;7983;50.744;7.086;2023-03-23T09:20:29;16.20;99.90
15765;DHT22;7983;50.744;7.086;2023-03-23T09:22:57;16.30;99.90
15765;DHT22;7983;50.744;7.086;2023-03-23T09:25:25;16.30;99.90
15765;DHT22;7983;50.744;7.086;2023-03-23T09:27:56;16.30;99.90
15765;DHT22;7983;50.744;7.086;2023-03-23T09:30:28;16.30;99.90
15765;DHT22;7983;50.744;7.086;2023-03-23T09:33:00;16.40;99.90
15765;DHT22;7983;50.744;7.086;2023-03-23T09:35:34;16.40;99.90
15765;DHT22;7983;50.744;7.086;2023-03-23T09:38:01;16.40;99.90
15765;DHT22;7983;50.744;7.086;2023-03-23T09:40:39;16.40;99.90
15765;DHT22;7983;50.744;7.086;2023-03-23T09:51:39;16.50;99.90
15765;DHT22;7983;50.744;7.086;2023-03-23T09:54:27;16.60;99.90
15765;DHT22;7983;50.744;7.086;2023-03-23T09:56:57;16.60;99.90
15765;DHT22;7983;50.744;7.086;2023-03-23T09:59:24;16.70;99.90
15765;DHT22;7983;50.744;7.086;2023-03-23T10:01:59;16.70;99.90
15765;DHT22;7983;50.744;7.086;2023-03-23T10:07:26;16.70;99.90
15765;DHT22;7983;50.744;7.086;2023-03-23T10:09:57;16.60;99.90
15765;DHT22;7983;50.744;7.086;2023-03-23T10:20:32;16.60;99.90
15765;DHT22;7983;50.744;7.086;2023-03-23T10:26:29;16.60;99.90
15765;DHT22;7983;50.744;7.086;2023-03-23T10:31:58;16.60;99.90
15765;DHT22;7983;50.744;7.086;2023-03-23T10:34:32;16.60;99.90
15765;DHT22;7983;50.744;7.086;2023-03-23T10:37:04;16.60;99.90
15765;DHT22;7983;50.744;7.086;2023-03-23T10:39:41;16.70;99.90
15765;DHT22;7983;50.744;7.086;2023-03-23T10:42:09;16.60;99.90
15765;DHT22;7983;50.744;7.086;2023-03-23T10:44:35;16.60;99.90
15765;DHT22;7983;50.744;7.086;2023-03-23T10:47:02;16.60;99.90
15765;DHT22;7983;50.744;7.086;2023-03-23T10:50:11;16.60;99.90
15765;DHT22;7983;50.744;7.086;2023-03-23T10:52:40;16.70;99.90
15765;DHT22;7983;50.744;7.086;2023-03-23T10:57:36;16.70;99.90
15765;DHT22;7983;50.744;7.086;2023-03-23T11:02:42;16.70;99.90
15765;DHT22;7983;50.744;7.086;2023-03-23T11:05:23;16.70;99.90
15765;DHT22;7983;50.744;7.086;2023-03-23T11:07:55;16.80;99.90
15765;DHT22;7983;50.744;7.086;2023-03-23T11:10:27;16.80;99.90
15765;DHT22;7983;50.744;7.086;2023-03-23T11:12:58;16.70;99.90
15765;DHT22;7983;50.744;7.086;2023-03-23T11:15:36;16.80;99.90
15765;DHT22;7983;50.744;7.086;2023-03-23T11:18:10;16.80;99.90
15765;DHT22;7983;50.744;7.086;2023-03-23T11:20:40;16.80;99.90
15765;DHT22;7983;50.744;7.086;2023-03-23T11:23:26;16.90;99.90
15765;DHT22;7983;50.744;7.086;2023-03-23T11:28:30;17.00;99.90
15765;DHT22;7983;50.744;7.086;2023-03-23T11:31:03;17.10;99.90
15765;DHT22;7983;50.744;7.086;2023-03-23T11:33:51;17.10;99.90
15765;DHT22;7983;50.744;7.086;2023-03-23T11:36:17;17.10;99.90
15765;DHT22;7983;50.744;7.086;2023-03-23T11:38:46;17.20;99.90
15765;DHT22;7983;50.744;7.086;2023-03-23T11:41:16;17.20;99.90
15765;DHT22;7983;50.744;7.086;2023-03-23T11:43:45;17.30;99.90
15765;DHT22;7983;50.744;7.086;2023-03-23T11:48:53;17.40;99.90
15765;DHT22;7983;50.744;7.086;2023-03-23T11:51:30;17.50;99.90
15765;DHT22;7983;50.744;7.086;2023-03-23T11:56:52;17.80;99.90
15765;DHT22;7983;50.744;7.086;2023-03-23T11:59:32;17.80;99.90
15765;DHT22;7983;50.744;7.086;2023-03-23T12:05:27;17.70;99.90
15765;DHT22;7983;50.744;7.086;2023-03-23T12:10:54;17.70;99.90
15765;DHT22;7983;50.744;7.086;2023-03-23T12:30:19;17.80;99.90
15765;DHT22;7983;50.744;7.086;2023-03-23T12:38:15;17.80;99.90
15765;DHT22;7983;50.744;7.086;2023-03-23T12:49:36;17.70;99.90
15765;DHT22;7983;50.744;7.086;2023-03-23T12:53:04;17.70;99.90
15765;DHT22;7983;50.744;7.086;2023-03-23T12:55:23;17.70;99.90
15765;DHT22;7983;50.744;7.086;2023-03-23T12:57:57;17.70;99.90
15765;DHT22;7983;50.744;7.086;2023-03-23T13:00:26;17.70;99.90
15765;DHT22;7983;50.744;7.086;2023-03-23T13:03:04;17.70;99.90
15765;DHT22;7983;50.744;7.086;2023-03-23T13:08:16;17.60;99.90
15765;DHT22;7983;50.744;7.086;2023-03-23T13:10:51;17.60;99.90
15765;DHT22;7983;50.744;7.086;2023-03-23T13:13:23;17.60;99.90
15765;DHT22;7983;50.744;7.086;2023-03-23T13:16:01;17.60;99.90
15765;DHT22;7983;50.744;7.086;2023-03-23T13:21:33;17.60;99.90
15765;DHT22;7983;50.744;7.086;2023-03-23T13:24:09;17.60;99.90
15765;DHT22;7983;50.744;7.086;2023-03-23T13:26:40;17.60;99.90
15765;DHT22;7983;50.744;7.086;2023-03-23T13:29:08;17.70;99.90
15765;DHT22;7983;50.744;7.086;2023-03-23T13:31:36;17.70;99.90
15765;DHT22;7983;50.744;7.086;2023-03-23T13:34:24;17.80;99.90
15765;DHT22;7983;50.744;7.086;2023-03-23T13:39:23;17.90;99.90
15765;DHT22;7983;50.744;7.086;2023-03-23T13:52:47;18.20;99.90
15765;DHT22;7983;50.744;7.086;2023-03-23T14:00:43;18.40;99.90
15765;DHT22;7983;50.744;7.086;2023-03-23T14:06:02;18.50;99.90
15765;DHT22;7983;50.744;7.086;2023-03-23T14:11:19;18.60;99.90
15765;DHT22;7983;50.744;7.086;2023-03-23T14:14:12;18.60;99.90
15765;DHT22;7983;50.744;7.086;2023-03-23T14:16:45;18.60;99.90
15765;DHT22;7983;50.744;7.086;2023-03-23T14:19:25;18.60;99.90
15765;DHT22;7983;50.744;7.086;2023-03-23T14:21:58;18.60;99.90
15765;DHT22;7983;50.744;7.086;2023-03-23T14:24:32;18.60;99.90
15765;DHT22;7983;50.744;7.086;2023-03-23T14:29:40;18.50;99.90
15765;DHT22;7983;50.744;7.086;2023-03-23T14:32:16;18.40;99.90
15765;DHT22;7983;50.744;7.086;2023-03-23T14:34:43;18.40;99.90
15765;DHT22;7983;50.744;7.086;2023-03-23T14:37:13;18.30;99.90
15765;DHT22;7983;50.744;7.086;2023-03-23T14:39:44;18.30;99.90
15765;DHT22;7983;50.744;7.086;2023-03-23T14:42:13;18.30;99.90
15765;DHT22;7983;50.744;7.086;2023-03-23T14:44:43;18.30;99.90
15765;DHT22;7983;50.744;7.086;2023-03-23T14:47:18;18.20;99.90
15765;DHT22;7983;50.744;7.086;2023-03-23T14:49:47;18.20;99.90
15765;DHT22;7983;50.744;7.086;2023-03-23T14:52:18;18.20;99.90
15765;DHT22;7983;50.744;7.086;2023-03-23T14:54:46;18.20;99.90
15765;DHT22;7983;50.744;7.086;2023-03-23T14:59:43;18.20;99.90
15765;DHT22;7983;50.744;7.086;2023-03-23T15:02:23;18.20;99.90
15765;DHT22;7983;50.744;7.086;2023-03-23T15:04:58;18.10;99.90
15765;DHT22;7983;50.744;7.086;2023-03-23T15:07:30;18.10;99.90
15765;DHT22;7983;50.744;7.086;2023-03-23T15:09:59;18.10;99.90
15765;DHT22;7983;50.744;7.086;2023-03-23T15:12:27;18.20;99.90
15765;DHT22;7983;50.744;7.086;2023-03-23T15:14:58;18.30;99.90
15765;DHT22;7983;50.744;7.086;2023-03-23T15:17:27;18.40;99.90
15765;DHT22;7983;50.744;7.086;2023-03-23T15:19:54;18.50;99.90
15765;DHT22;7983;50.744;7.086;2023-03-23T15:22:29;18.50;99.90
15765;DHT22;7983;50.744;7.086;2023-03-23T15:27:39;18.60;99.90
15765;DHT22;7983;50.744;7.086;2023-03-23T15:32:54;18.60;99.90
15765;DHT22;7983;50.744;7.086;2023-03-23T15:35:23;18.60;99.90
15765;DHT22;7983;50.744;7.086;2023-03-23T15:38:06;18.60;99.90
15765;DHT22;7983;50.744;7.086;2023-03-23T15:40:37;18.60;99.90
15765;DHT22;7983;50.744;7.086;2023-03-23T15:43:16;18.60;99.90
15765;DHT22;7983;50.744;7.086;2023-03-23T15:46:00;18.50;99.90
15765;DHT22;7983;50.744;7.086;2023-03-23T15:48:29;18.50;99.90
15765;DHT22;7983;50.744;7.086;2023-03-23T15:50:56;18.40;99.90
15765;DHT22;7983;50.744;7.086;2023-03-23T15:53:29;18.40;99.90
15765;DHT22;7983;50.744;7.086;2023-03-23T15:55:55;18.40;99.90
15765;DHT22;7983;50.744;7.086;2023-03-23T15:58:23;18.40;99.90
15765;DHT22;7983;50.744;7.086;2023-03-23T16:00:53;18.40;99.90
15765;DHT22;7983;50.744;7.086;2023-03-23T16:03:27;18.50;99.90
15765;DHT22;7983;50.744;7.086;2023-03-23T16:05:57;18.50;99.90
15765;DHT22;7983;50.744;7.086;2023-03-23T16:08:25;18.50;99.90
15765;DHT22;7983;50.744;7.086;2023-03-23T16:10:55;18.50;99.90
15765;DHT22;7983;50.744;7.086;2023-03-23T16:13:21;18.50;99.90
15765;DHT22;7983;50.744;7.086;2023-03-23T16:15:48;18.50;99.90
15765;DHT22;7983;50.744;7.086;2023-03-23T16:18:18;18.50;99.90
15765;DHT22;7983;50.744;7.086;2023-03-23T16:20:44;18.40;99.90
15765;DHT22;7983;50.744;7.086;2023-03-23T16:23:10;18.40;99.90
15765;DHT22;7983;50.744;7.086;2023-03-23T16:25:35;18.40;99.90
15765;DHT22;7983;50.744;7.086;2023-03-23T16:28:01;18.30;99.90
15765;DHT22;7983;50.744;7.086;2023-03-23T16:30:31;18.30;99.90
15765;DHT22;7983;50.744;7.086;2023-03-23T16:33:03;18.30;99.90
15765;DHT22;7983;50.744;7.086;2023-03-23T16:35:30;18.30;99.90
15765;DHT22;7983;50.744;7.086;2023-03-23T16:37:56;18.20;99.90
15765;DHT22;7983;50.744;7.086;2023-03-23T16:40:22;18.20;99.90
15765;DHT22;7983;50.744;7.086;2023-03-23T16:42:50;18.20;99.90
15765;DHT22;7983;50.744;7.086;2023-03-23T16:45:17;18.20;99.90
15765;DHT22;7983;50.744;7.086;2023-03-23T16:47:43;18.30;99.90
15765;DHT22;7983;50.744;7.086;2023-03-23T16:50:11;18.20;99.90
15765;DHT22;7983;50.744;7.086;2023-03-23T16:52:38;18.20;99.90
15765;DHT22;7983;50.744;7.086;2023-03-23T16:55:05;18.20;99.90
15765;DHT22;7983;50.744;7.086;2023-03-23T16:57:32;18.10;99.90
15765;DHT22;7983;50.744;7.086;2023-03-23T17:00:08;18.10;99.90
15765;DHT22;7983;50.744;7.086;2023-03-23T17:02:35;18.10;99.90
15765;DHT22;7983;50.744;7.086;2023-03-23T17:05:01;18.00;99.90
15765;DHT22;7983;50.744;7.086;2023-03-23T17:07:27;17.90;99.90
15765;DHT22;7983;50.744;7.086;2023-03-23T17:09:58;17.80;99.90
15765;DHT22;7983;50.744;7.086;2023-03-23T17:12:27;17.80;99.90
15765;DHT22;7983;50.744;7.086;2023-03-23T17:14:52;17.70;99.90
15765;DHT22;7983;50.744;7.086;2023-03-23T17:17:21;17.60;99.90
15765;DHT22;7983;50.744;7.086;2023-03-23T17:19:49;17.50;99.90
15765;DHT22;7983;50.744;7.086;2023-03-23T17:22:15;17.50;99.90
15765;DHT22;7983;50.744;7.086;2023-03-23T17:24:40;17.40;99.90
15765;DHT22;7983;50.744;7.086;2023-03-23T17:27:06;17.40;99.90
15765;DHT22;7983;50.744;7.086;2023-03-23T17:29:35;17.30;99.90
15765;DHT22;7983;50.744;7.086;2023-03-23T17:32:01;17.20;99.90
15765;DHT22;7983;50.744;7.086;2023-03-23T17:34:27;17.20;99.90
15765;DHT22;7983;50.744;7.086;2023-03-23T17:36:52;17.20;99.90
15765;DHT22;7983;50.744;7.086;2023-03-23T17:39:18;17.10;99.90
15765;DHT22;7983;50.744;7.086;2023-03-23T17:41:46;17.10;99.90
15765;DHT22;7983;50.744;7.086;2023-03-23T17:44:12;17.10;99.90
15765;DHT22;7983;50.744;7.086;2023-03-23T17:46:37;17.00;99.90
15765;DHT22;7983;50.744;7.086;2023-03-23T17:49:05;17.00;99.90
15765;DHT22;7983;50.744;7.086;2023-03-23T17:51:31;17.00;99.90
15765;DHT22;7983;50.744;7.086;2023-03-23T17:53:57;17.00;99.90
15765;DHT22;7983;50.744;7.086;2023-03-23T17:56:25;17.00;99.90
15765;DHT22;7983;50.744;7.086;2023-03-23T17:58:50;17.00;99.90
15765;DHT22;7983;50.744;7.086;2023-03-23T18:01:16;16.90;99.90
15765;DHT22;7983;50.744;7.086;2023-03-23T18:03:42;16.90;99.90
15765;DHT22;7983;50.744;7.086;2023-03-23T18:06:10;16.90;99.90
15765;DHT22;7983;50.744;7.086;2023-03-23T18:08:38;16.90;99.90
15765;DHT22;7983;50.744;7.086;2023-03-23T18:11:05;16.90;99.90
15765;DHT22;7983;50.744;7.086;2023-03-23T18:13:33;16.80;99.90
15765;DHT22;7983;50.744;7.086;2023-03-23T18:16:03;16.80;99.90
15765;DHT22;7983;50.744;7.086;2023-03-23T18:18:31;16.80;99.90
15765;DHT22;7983;50.744;7.086;2023-03-23T18:21:02;16.80;99.90
15765;DHT22;7983;50.744;7.086;2023-03-23T18:23:34;16.70;99.90
15765;DHT22;7983;50.744;7.086;2023-03-23T18:26:05;16.80;99.90
15765;DHT22;7983;50.744;7.086;2023-03-23T18:28:31;16.70;99.90
15765;DHT22;7983;50.744;7.086;2023-03-23T18:31:06;16.70;99.90